General Aviation Weather

Text Reports

Enter one or more of the following location identifiers separated by a space:

Zip Code, Four-Character ICAO or Three-Character IATA airport codes.

METAR - Aviation Routine Weather Report
KCHD - Chandler, Arizona
Updated at 3:47 AM GMT on October 31, 2014 (8:47 PM MST):
METAR KCHD 310347Z 00000KT 15SM BKN250 22/10 A2993 RMK LAST
TAF - Terminal Area Forecast
KCHD - Chandler, Arizona
Updated at 3:47 AM GMT on October 31, 2014 (8:47 PM MST):
No TAF is currently available for this location.
Decoded:
No decoded TAF is available.
PIREP - Pilot Weather Report
KCHD - Chandler, Arizona
Updated at 3:47 AM GMT on October 31, 2014 (8:47 PM MST):
No PIREP is currently available for this location.
AIRMET - Airmens Meteorological Information
KCHD - Chandler, Arizona
Updated at 3:47 AM GMT on October 31, 2014 (8:47 PM MST):
No AIRMET is currently available for this location.
SIGMET - Significant Meteorological Information
KCHD - Chandler, Arizona
Updated at 3:47 AM GMT on October 31, 2014 (8:47 PM MST):
No SIGMET is currently available for this location.
NOTAM - Notice to Airmen
KCHD - Chandler, Arizona
Updated at 3:47 AM GMT on October 31, 2014 (8:47 PM MST):
No NOTAM is currently available for this location.
Forecast Area
KCHD - Chandler, Arizona
Updated at 3:47 AM GMT on October 31, 2014 (8:47 PM MST):
No NOTAM is currently available for this location.
Aviation Weather Maps